createdAt,value
2018-09-19T00:00:30.488Z,99127.64
2018-09-19T00:03:04.839Z,99128.31
2018-09-19T00:05:39.187Z,99128.34
2018-09-19T00:08:13.609Z,99130.88
2018-09-19T00:10:47.967Z,99127.45
2018-09-19T00:13:22.307Z,99121.29
2018-09-19T00:15:56.784Z,99124.48
2018-09-19T00:18:31.490Z,99129.41
2018-09-19T00:21:05.829Z,99133.43
2018-09-19T00:23:40.153Z,99122.09
2018-09-19T00:26:14.764Z,99127.71
2018-09-19T00:28:49.489Z,99133.66
2018-09-19T00:31:24.030Z,99130.45
2018-09-19T00:33:58.421Z,99139.75
2018-09-19T00:36:32.653Z,99131.64
2018-09-19T00:39:08.262Z,99139.89
2018-09-19T00:41:42.460Z,99138.52
2018-09-19T00:44:16.787Z,99135.00
2018-09-19T00:46:51.147Z,99136.49
2018-09-19T00:49:25.543Z,99141.08
2018-09-19T00:51:59.809Z,99136.31
2018-09-19T00:54:34.237Z,99138.83
2018-09-19T00:57:08.616Z,99139.66
2018-09-19T00:59:43.162Z,99143.67
2018-09-19T01:02:17.419Z,99151.65
2018-09-19T01:04:51.807Z,99154.17
2018-09-19T01:07:26.176Z,99157.14
2018-09-19T01:10:00.570Z,99160.09
2018-09-19T01:12:34.959Z,99153.23
2018-09-19T01:15:09.332Z,99158.59
2018-09-19T01:17:43.785Z,99151.83
2018-09-19T01:20:18.012Z,99152.52
2018-09-19T01:22:52.401Z,99156.51
2018-09-19T01:25:26.632Z,99152.63
2018-09-19T01:28:01.777Z,99159.25
2018-09-19T01:30:36.267Z,99157.08
2018-09-19T01:33:10.701Z,99158.80
2018-09-19T01:35:44.939Z,99165.64
2018-09-19T01:38:19.364Z,99158.45
2018-09-19T01:40:53.963Z,99152.97
2018-09-19T01:43:28.507Z,99156.50
2018-09-19T01:46:03.353Z,99159.70
2018-09-19T01:48:37.718Z,99163.13
2018-09-19T01:51:12.489Z,99162.20
2018-09-19T01:56:45.603Z,99168.05
2018-09-19T01:59:20.030Z,99173.36
2018-09-19T02:01:54.555Z,99176.70
2018-09-19T02:04:28.973Z,99169.50
2018-09-19T02:07:03.675Z,99173.15
2018-09-19T02:09:38.122Z,99170.63
2018-09-19T02:12:12.366Z,99176.23
2018-09-19T02:14:46.712Z,99178.19
2018-09-19T02:17:21.041Z,99177.95
2018-09-19T02:19:55.429Z,99181.05
2018-09-19T02:22:29.752Z,99176.11
2018-09-19T02:25:04.185Z,99176.22
2018-09-19T02:27:38.805Z,99168.11
2018-09-19T02:30:13.197Z,99167.42
2018-09-19T02:32:47.557Z,99165.38
2018-09-19T02:35:21.957Z,99167.77
2018-09-19T02:37:56.375Z,99170.84
2018-09-19T02:40:35.970Z,99160.79
2018-09-19T02:43:11.287Z,99160.82
2018-09-19T02:45:54.051Z,99161.25
2018-09-19T02:48:46.251Z,99156.69
2018-09-19T02:51:20.833Z,99166.74
2018-09-19T02:53:55.125Z,99160.20
2018-09-19T02:56:29.452Z,99154.23
2018-09-19T02:59:03.739Z,99148.20
2018-09-19T03:01:38.039Z,99159.97
2018-09-19T03:04:12.521Z,99158.34
2018-09-19T03:06:46.889Z,99165.11
2018-09-19T03:09:21.317Z,99173.14
2018-09-19T03:11:55.686Z,99174.97
2018-09-19T03:14:30.140Z,99173.34
2018-09-19T03:17:04.636Z,99170.70
2018-09-19T03:19:38.960Z,99173.11
2018-09-19T03:22:13.212Z,99176.31
2018-09-19T03:24:47.722Z,99173.80
2018-09-19T03:27:21.963Z,99175.63
2018-09-19T03:29:56.267Z,99177.48
2018-09-19T03:32:30.674Z,99183.42
2018-09-19T03:35:05.026Z,99176.56
2018-09-19T03:37:39.284Z,99179.77
2018-09-19T03:40:13.657Z,99169.82
2018-09-19T03:42:48.050Z,99167.53
2018-09-19T03:45:22.487Z,99167.42
2018-09-19T03:47:56.760Z,99158.51
2018-09-19T03:50:31.180Z,99161.36
2018-09-19T03:53:05.605Z,99157.14
2018-09-19T03:55:40.039Z,99164.45
2018-09-19T03:58:14.448Z,99168.34
2018-09-19T04:00:48.805Z,99172.20
2018-09-19T04:03:23.195Z,99172.19
2018-09-19T04:05:57.657Z,99176.30
2018-09-19T04:08:32.282Z,99177.53
2018-09-19T04:11:06.812Z,99181.75
2018-09-19T04:13:41.139Z,99180.38
2018-09-19T04:16:15.558Z,99184.95
2018-09-19T04:18:49.863Z,99190.36
2018-09-19T04:21:24.333Z,99190.24
2018-09-19T04:23:58.612Z,99185.67
2018-09-19T04:26:32.965Z,99177.45
2018-09-19T04:29:07.304Z,99172.19
2018-09-19T04:31:41.852Z,99186.93
2018-09-19T04:34:16.694Z,99184.76
2018-09-19T04:36:51.069Z,99189.10
2018-09-19T04:39:25.506Z,99190.36
2018-09-19T04:41:59.920Z,99191.61
2018-09-19T04:44:34.315Z,99194.92
2018-09-19T04:47:08.626Z,99181.10
2018-09-19T04:49:43.101Z,99184.03
2018-09-19T04:52:17.451Z,99187.00
2018-09-19T04:54:51.844Z,99185.63
2018-09-19T04:57:26.605Z,99187.45
2018-09-19T05:00:17.791Z,99185.62
2018-09-19T05:02:52.127Z,99185.39
2018-09-19T05:05:43.394Z,99180.93
2018-09-19T05:08:27.624Z,99190.86
2018-09-19T05:11:01.896Z,99189.72
2018-09-19T05:13:36.309Z,99189.26
2018-09-19T05:16:10.606Z,99195.66
2018-09-19T05:18:44.912Z,99192.81
2018-09-19T05:21:19.228Z,99197.72
2018-09-19T05:24:12.128Z,99196.34
2018-09-19T05:26:46.491Z,99194.41
2018-09-19T05:29:21.179Z,99194.30
2018-09-19T05:31:55.613Z,99198.64
2018-09-19T05:34:29.994Z,99196.59
2018-09-19T05:37:04.403Z,99198.19
2018-09-19T05:39:38.783Z,99200.59
2018-09-19T05:42:13.177Z,99197.05
2018-09-19T05:44:47.610Z,99206.18
2018-09-19T05:47:22.003Z,99206.08
2018-09-19T05:49:56.433Z,99208.71
2018-09-19T05:52:30.857Z,99201.89
2018-09-19T05:55:05.389Z,99204.19
2018-09-19T05:57:39.867Z,99200.33
2018-09-19T06:00:14.217Z,99192.81
2018-09-19T06:02:48.485Z,99191.09
2018-09-19T06:05:23.097Z,99195.55
2018-09-19T06:07:57.547Z,99193.03
2018-09-19T06:10:32.003Z,99194.05
2018-09-19T06:13:06.311Z,99185.83
2018-09-19T06:15:40.674Z,99188.91
2018-09-19T06:18:15.118Z,99186.50
2018-09-19T06:20:49.505Z,99177.45
2018-09-19T06:23:23.935Z,99176.06
2018-09-19T06:25:58.340Z,99167.80
2018-09-19T06:28:32.620Z,99172.25
2018-09-19T06:31:07.293Z,99172.03
2018-09-19T06:33:41.693Z,99176.00
2018-09-19T06:36:16.092Z,99185.14
2018-09-19T06:38:50.324Z,99181.36
2018-09-19T06:41:24.734Z,99178.89
2018-09-19T06:43:59.139Z,99178.52
2018-09-19T06:46:33.567Z,99167.13
2018-09-19T06:49:07.805Z,99172.28
2018-09-19T06:51:42.055Z,99165.77
2018-09-19T06:54:16.509Z,99169.59
2018-09-19T06:56:50.945Z,99164.17
2018-09-19T06:59:25.763Z,99160.88
2018-09-19T07:01:59.970Z,99163.17
2018-09-19T07:04:34.319Z,99166.60
2018-09-19T07:07:08.707Z,99169.28
2018-09-19T07:09:42.979Z,99171.05
2018-09-19T07:12:17.376Z,99173.34
2018-09-19T07:14:51.637Z,99171.44
2018-09-19T07:17:26.020Z,99167.73
2018-09-19T07:20:00.418Z,99176.20
2018-09-19T07:22:34.781Z,99171.22
2018-09-19T07:25:09.260Z,99181.88
2018-09-19T07:27:43.869Z,99183.03
2018-09-19T07:30:18.168Z,99185.69
2018-09-19T07:32:52.645Z,99190.27
2018-09-19T07:35:27.028Z,99186.09
2018-09-19T07:38:01.658Z,99187.61
2018-09-19T07:40:35.932Z,99190.65
2018-09-19T07:43:10.600Z,99197.58
2018-09-19T07:45:44.975Z,99206.86
2018-09-19T07:48:19.350Z,99207.52
2018-09-19T07:50:53.784Z,99205.97
2018-09-19T07:53:32.751Z,99213.45
2018-09-19T07:56:07.142Z,99212.43
2018-09-19T07:58:41.550Z,99209.58
2018-09-19T08:01:16.007Z,99203.97
2018-09-19T08:03:50.340Z,99204.11
2018-09-19T08:06:24.734Z,99203.77
2018-09-19T08:09:00.417Z,99198.81
2018-09-19T08:11:34.704Z,99210.94
2018-09-19T08:14:09.105Z,99205.09
2018-09-19T08:16:43.443Z,99200.84
2018-09-19T08:19:17.823Z,99202.55
2018-09-19T08:21:52.231Z,99210.85
2018-09-19T08:24:29.780Z,99207.06
2018-09-19T08:27:03.971Z,99207.86
2018-09-19T08:29:38.449Z,99213.41
2018-09-19T08:32:12.760Z,99216.81
2018-09-19T08:34:47.203Z,99221.81
2018-09-19T08:37:21.643Z,99225.53
2018-09-19T08:39:55.959Z,99225.63
2018-09-19T08:42:30.372Z,99229.34
2018-09-19T08:45:04.796Z,99226.18
2018-09-19T08:47:39.249Z,99228.86
2018-09-19T08:50:13.724Z,99227.22
2018-09-19T08:52:48.017Z,99225.13
2018-09-19T08:55:22.336Z,99210.10
2018-09-19T08:57:56.880Z,99213.63
2018-09-19T09:00:31.283Z,99197.39
2018-09-19T09:03:06.013Z,99205.91
2018-09-19T09:05:40.335Z,99206.03
2018-09-19T09:08:14.695Z,99196.08
2018-09-19T09:10:49.007Z,99198.47
2018-09-19T09:13:23.672Z,99199.81
2018-09-19T09:15:58.060Z,99188.00
2018-09-19T09:18:32.448Z,99200.64
2018-09-19T09:21:06.889Z,99193.44
2018-09-19T09:23:41.271Z,99192.75
2018-09-19T09:26:15.674Z,99199.85
2018-09-19T09:28:49.922Z,99191.86
2018-09-19T09:31:24.277Z,99194.13
2018-09-19T09:33:58.657Z,99194.86
2018-09-19T09:36:32.929Z,99195.91
2018-09-19T09:39:07.776Z,99189.55
2018-09-19T09:41:42.082Z,99196.20
2018-09-19T09:44:16.337Z,99183.29
2018-09-19T09:46:50.718Z,99170.98
2018-09-19T09:49:25.104Z,99173.73
2018-09-19T09:51:59.561Z,99175.16
2018-09-19T09:54:34.317Z,99173.77
2018-09-19T09:57:09.204Z,99175.35
2018-09-19T09:59:43.572Z,99177.52
2018-09-19T10:02:17.981Z,99177.30
2018-09-19T10:04:52.388Z,99182.06
2018-09-19T10:07:26.731Z,99173.91
2018-09-19T10:10:01.361Z,99172.66
2018-09-19T10:12:35.829Z,99173.80
2018-09-19T10:15:10.224Z,99169.03
2018-09-19T10:17:44.819Z,99167.30
2018-09-19T10:20:19.384Z,99169.14
2018-09-19T10:22:53.872Z,99162.24
2018-09-19T10:25:28.197Z,99158.92
2018-09-19T10:28:02.587Z,99165.25
2018-09-19T10:30:37.080Z,99155.87
2018-09-19T10:33:11.417Z,99157.17
2018-09-19T10:35:45.673Z,99156.91
2018-09-19T10:38:20.019Z,99171.77
2018-09-19T10:40:54.471Z,99166.04
2018-09-19T10:43:28.932Z,99157.89
2018-09-19T10:46:03.336Z,99162.06
2018-09-19T10:48:37.769Z,99165.04
2018-09-19T10:51:12.072Z,99160.61
2018-09-19T10:53:46.467Z,99158.08
2018-09-19T10:56:20.985Z,99146.09
2018-09-19T10:58:55.335Z,99146.11
2018-09-19T11:01:29.659Z,99137.16
2018-09-19T11:04:04.074Z,99131.67
2018-09-19T11:06:38.421Z,99135.58
2018-09-19T11:09:13.047Z,99135.52
2018-09-19T11:11:47.487Z,99135.30
2018-09-19T11:14:21.727Z,99146.28
2018-09-19T11:16:56.239Z,99135.68
2018-09-19T11:19:30.732Z,99135.77
2018-09-19T11:22:05.235Z,99132.59
2018-09-19T11:24:39.516Z,99133.97
2018-09-19T11:27:13.896Z,99129.20
2018-09-19T11:29:48.293Z,99127.52
2018-09-19T11:32:22.582Z,99129.09
2018-09-19T11:34:57.187Z,99132.63
2018-09-19T11:37:31.475Z,99130.72
2018-09-19T11:40:05.907Z,99129.47
2018-09-19T11:42:40.262Z,99134.06
2018-09-19T11:45:14.807Z,99125.80
2018-09-19T11:47:49.123Z,99131.31
2018-09-19T11:50:23.510Z,99132.33
2018-09-19T11:52:58.036Z,99126.41
2018-09-19T11:55:32.496Z,99130.75
2018-09-19T11:58:06.754Z,99131.53
2018-09-19T12:00:51.944Z,99128.16
2018-09-19T12:03:36.675Z,99128.22
2018-09-19T12:06:11.008Z,99126.80
2018-09-19T12:08:46.653Z,99125.22
2018-09-19T12:11:21.184Z,99116.63
2018-09-19T12:13:55.624Z,99119.09
2018-09-19T12:16:30.063Z,99118.66
2018-09-19T12:19:05.731Z,99124.52
2018-09-19T12:21:45.518Z,99118.76
2018-09-19T12:24:42.964Z,99112.28
2018-09-19T12:27:33.497Z,99118.36
2018-09-19T12:30:28.368Z,99118.19
2018-09-19T12:33:02.785Z,99110.58
2018-09-19T12:35:36.992Z,99109.53
2018-09-19T12:38:11.641Z,99107.14
2018-09-19T12:40:46.223Z,99115.56
2018-09-19T12:43:20.636Z,99112.89
2018-09-19T12:45:54.985Z,99117.91
2018-09-19T12:48:29.293Z,99109.20
2018-09-19T12:51:03.712Z,99107.55
2018-09-19T12:53:38.170Z,99107.63
2018-09-19T12:56:12.581Z,99108.26
2018-09-19T12:58:46.948Z,99105.91
2018-09-19T13:01:21.380Z,99103.94
2018-09-19T13:03:55.848Z,99104.22
2018-09-19T13:06:30.304Z,99108.59
2018-09-19T13:09:07.312Z,99101.70
2018-09-19T13:11:41.695Z,99109.73
2018-09-19T13:14:26.932Z,99108.50
2018-09-19T13:17:01.320Z,99117.14
2018-09-19T13:19:35.744Z,99106.03
2018-09-19T13:22:10.176Z,99106.59
2018-09-19T13:24:44.474Z,99111.94
2018-09-19T13:27:19.068Z,99095.01
2018-09-19T13:29:53.488Z,99091.17
2018-09-19T13:32:28.235Z,99091.66
2018-09-19T13:35:02.801Z,99090.92
2018-09-19T13:37:37.225Z,99088.03
2018-09-19T13:40:11.633Z,99084.50
2018-09-19T13:42:46.040Z,99080.03
2018-09-19T13:45:20.472Z,99077.90
2018-09-19T13:47:54.863Z,99076.04
2018-09-19T13:50:43.202Z,99070.48
2018-09-19T13:53:21.892Z,99078.13
2018-09-19T13:55:56.309Z,99084.22
2018-09-19T13:58:30.748Z,99073.72
2018-09-19T14:01:05.171Z,99068.94
2018-09-19T14:03:39.657Z,99064.18
2018-09-19T14:06:14.066Z,99065.99
2018-09-19T14:08:48.472Z,99070.09
2018-09-19T14:11:22.744Z,99073.25
2018-09-19T14:13:57.010Z,99065.41
2018-09-19T14:16:31.360Z,99062.71
2018-09-19T14:19:06.470Z,99053.60
2018-09-19T14:21:41.041Z,99064.14
2018-09-19T14:24:15.869Z,99060.12
2018-09-19T14:26:50.125Z,99061.20
2018-09-19T14:29:24.575Z,99056.00
2018-09-19T14:31:58.958Z,99054.56
2018-09-19T14:34:34.430Z,99056.91
2018-09-19T14:37:08.844Z,99052.02
2018-09-19T14:39:43.255Z,99055.21
2018-09-19T14:42:17.952Z,99043.89
2018-09-19T14:44:52.386Z,99046.38
2018-09-19T14:47:26.623Z,99041.00
2018-09-19T14:50:01.356Z,99046.59
2018-09-19T14:52:35.729Z,99047.27
2018-09-19T14:55:10.266Z,99042.22
2018-09-19T14:57:44.597Z,99044.73
2018-09-19T15:00:19.052Z,99043.68
2018-09-19T15:02:53.456Z,99041.26
2018-09-19T15:05:27.813Z,99046.79
2018-09-19T15:08:02.305Z,99036.50
2018-09-19T15:10:36.631Z,99038.18
2018-09-19T15:13:10.954Z,99039.73
2018-09-19T15:15:45.348Z,99041.44
2018-09-19T15:18:19.817Z,99040.57
2018-09-19T15:20:54.133Z,99038.35
2018-09-19T15:23:28.510Z,99042.23
2018-09-19T15:26:02.964Z,99042.61
2018-09-19T15:28:37.393Z,99040.41
2018-09-19T15:31:11.704Z,99038.58
2018-09-19T15:33:46.012Z,99041.73
2018-09-19T15:36:20.444Z,99042.41
2018-09-19T15:38:54.901Z,99042.00
2018-09-19T15:41:30.440Z,99049.07
2018-09-19T15:44:15.725Z,99040.98
2018-09-19T15:46:50.225Z,99038.91
2018-09-19T15:49:24.652Z,99047.29
2018-09-19T15:51:59.036Z,99046.30
2018-09-19T15:54:33.364Z,99053.03
2018-09-19T15:57:07.766Z,99049.12
2018-09-19T15:59:42.153Z,99054.36
2018-09-19T16:02:16.656Z,99051.41
2018-09-19T16:04:51.047Z,99061.20
2018-09-19T16:07:25.483Z,99057.22
2018-09-19T16:10:00.014Z,99051.89
2018-09-19T16:12:34.524Z,99053.59
2018-09-19T16:15:09.203Z,99049.16
2018-09-19T16:17:43.877Z,99056.45
2018-09-19T16:20:18.583Z,99054.93
2018-09-19T16:22:53.330Z,99064.09
2018-09-19T16:25:27.979Z,99059.23
2018-09-19T16:28:02.630Z,99060.34
2018-09-19T16:30:37.166Z,99066.65
2018-09-19T16:33:12.035Z,99064.42
2018-09-19T16:35:46.702Z,99070.95
2018-09-19T16:38:21.367Z,99067.16
2018-09-19T16:40:56.302Z,99073.77
2018-09-19T16:43:30.908Z,99074.56
2018-09-19T16:46:05.331Z,99080.87
2018-09-19T16:48:39.673Z,99086.24
2018-09-19T16:51:14.096Z,99090.27
2018-09-19T16:53:48.666Z,99086.31
2018-09-19T16:56:23.208Z,99085.38
2018-09-19T16:58:58.098Z,99092.95
2018-09-19T17:01:32.553Z,99094.75
2018-09-19T17:04:07.078Z,99095.17
2018-09-19T17:06:41.701Z,99097.14
2018-09-19T17:09:16.277Z,99097.55
2018-09-19T17:11:50.827Z,99101.75
2018-09-19T17:14:25.402Z,99103.52
2018-09-19T17:19:44.343Z,99109.59
2018-09-19T17:22:18.729Z,99106.41
2018-09-19T17:24:53.153Z,99115.51
2018-09-19T17:27:27.577Z,99114.47
2018-09-19T17:30:01.919Z,99120.39
2018-09-19T17:32:36.332Z,99120.36
2018-09-19T17:35:10.660Z,99119.36
2018-09-19T17:37:45.100Z,99127.20
2018-09-19T17:40:19.422Z,99129.77
2018-09-19T17:42:53.679Z,99127.33
2018-09-19T17:45:28.120Z,99132.44
2018-09-19T17:48:02.689Z,99142.47
2018-09-19T17:50:37.155Z,99143.44
2018-09-19T17:53:11.485Z,99144.99
2018-09-19T17:55:45.956Z,99136.83
2018-09-19T17:58:20.336Z,99145.02
2018-09-19T18:00:55.111Z,99144.12
2018-09-19T18:03:29.449Z,99143.69
2018-09-19T18:06:03.860Z,99148.50
2018-09-19T18:08:38.287Z,99145.26
2018-09-19T18:11:12.706Z,99149.14
2018-09-19T18:13:47.059Z,99151.02
2018-09-19T18:16:22.026Z,99160.02
2018-09-19T18:18:56.380Z,99163.34
2018-09-19T18:21:30.785Z,99166.35
2018-09-19T18:24:05.102Z,99171.05
2018-09-19T18:26:39.377Z,99172.02
2018-09-19T18:29:14.090Z,99180.25
2018-09-19T18:31:48.677Z,99180.11
2018-09-19T18:34:23.339Z,99189.09
2018-09-19T18:36:58.073Z,99193.70
2018-09-19T18:39:32.701Z,99193.63
2018-09-19T18:42:07.327Z,99195.89
2018-09-19T18:44:41.931Z,99197.73
2018-09-19T18:47:16.538Z,99198.34
2018-09-19T18:49:51.334Z,99207.14
2018-09-19T18:52:26.801Z,99213.20
2018-09-19T18:55:01.414Z,99215.52
2018-09-19T18:57:36.066Z,99215.63
2018-09-19T19:00:10.724Z,99224.95
2018-09-19T19:02:45.394Z,99224.99
2018-09-19T19:05:19.965Z,99230.45
2018-09-19T19:07:54.725Z,99237.31
2018-09-19T19:10:29.446Z,99239.25
2018-09-19T19:13:04.645Z,99242.17
2018-09-19T19:15:39.365Z,99240.88
2018-09-19T19:18:13.976Z,99238.84
2018-09-19T19:20:48.876Z,99248.06
2018-09-19T19:23:23.479Z,99247.72
2018-09-19T19:25:58.169Z,99245.44
2018-09-19T19:28:32.743Z,99249.29
2018-09-19T19:31:07.361Z,99253.64
2018-09-19T19:33:41.915Z,99253.80
2018-09-19T19:36:16.585Z,99250.47
2018-09-19T19:38:54.722Z,99254.89
2018-09-19T19:41:30.545Z,99262.27
2018-09-19T19:44:04.959Z,99265.81
2018-09-19T19:46:39.441Z,99263.71
2018-09-19T19:49:14.145Z,99266.61
2018-09-19T19:51:48.625Z,99268.86
2018-09-19T19:54:23.311Z,99269.06
2018-09-19T19:56:57.952Z,99273.12
2018-09-19T19:59:32.587Z,99275.55
2018-09-19T20:02:07.105Z,99273.38
2018-09-19T20:04:41.565Z,99275.00
2018-09-19T20:07:17.126Z,99275.20
2018-09-19T20:09:51.526Z,99285.91
2018-09-19T20:12:26.104Z,99289.52
2018-09-19T20:15:00.601Z,99281.28
2018-09-19T20:17:35.284Z,99278.58
2018-09-19T20:20:09.959Z,99279.44
2018-09-19T20:22:44.466Z,99285.73
2018-09-19T20:25:19.141Z,99280.45
2018-09-19T20:27:53.809Z,99281.39
2018-09-19T20:30:28.387Z,99283.61
2018-09-19T20:33:02.972Z,99278.45
2018-09-19T20:35:37.440Z,99280.98
2018-09-19T20:38:11.834Z,99291.33
2018-09-19T20:40:46.394Z,99284.25
2018-09-19T20:43:21.040Z,99287.23
2018-09-19T20:45:55.858Z,99285.55
2018-09-19T20:48:30.357Z,99289.63
2018-09-19T20:51:04.961Z,99300.62
2018-09-19T20:53:39.569Z,99294.97
2018-09-19T20:56:14.243Z,99298.74
2018-09-19T20:58:48.801Z,99299.66
2018-09-19T21:01:23.423Z,99302.70
2018-09-19T21:03:58.162Z,99299.30
2018-09-19T21:06:33.088Z,99301.61
2018-09-19T21:09:07.665Z,99306.16
2018-09-19T21:11:42.363Z,99315.85
2018-09-19T21:14:16.921Z,99319.31
2018-09-19T21:16:51.528Z,99316.13
2018-09-19T21:19:27.284Z,99323.30
2018-09-19T21:22:02.132Z,99313.36
2018-09-19T21:24:36.713Z,99316.38
2018-09-19T21:27:11.489Z,99315.63
2018-09-19T21:29:46.013Z,99314.40
2018-09-19T21:32:20.717Z,99314.73
2018-09-19T21:34:55.346Z,99322.92
2018-09-19T21:37:30.718Z,99324.56
2018-09-19T21:40:05.239Z,99326.29
2018-09-19T21:42:40.015Z,99330.01
2018-09-19T21:45:14.628Z,99330.94
2018-09-19T21:47:49.357Z,99330.72
2018-09-19T21:50:24.133Z,99333.95
2018-09-19T21:52:58.682Z,99337.63
2018-09-19T21:55:33.293Z,99336.13
2018-09-19T21:58:07.943Z,99328.33
2018-09-19T22:00:43.075Z,99328.81
2018-09-19T22:03:17.826Z,99332.36
2018-09-19T22:05:52.670Z,99322.95
2018-09-19T22:08:27.329Z,99326.38
2018-09-19T22:11:02.032Z,99322.06
2018-09-19T22:13:36.660Z,99327.59
2018-09-19T22:16:11.182Z,99322.59
2018-09-19T22:18:45.857Z,99323.97
2018-09-19T22:21:20.604Z,99323.30
2018-09-19T22:23:55.448Z,99322.14
2018-09-19T22:26:29.990Z,99323.64
2018-09-19T22:29:04.439Z,99321.12
2018-09-19T22:31:39.167Z,99323.52
2018-09-19T22:34:13.832Z,99323.07
2018-09-19T22:36:48.420Z,99317.09
2018-09-19T22:39:22.974Z,99318.70
2018-09-19T22:41:57.530Z,99312.97
2018-09-19T22:44:32.165Z,99316.07
2018-09-19T22:47:07.113Z,99315.27
2018-09-19T22:49:41.947Z,99312.90
2018-09-19T22:52:16.509Z,99312.47
2018-09-19T22:54:51.181Z,99312.59
2018-09-19T22:57:25.852Z,99310.44
2018-09-19T23:00:00.419Z,99317.08
2018-09-19T23:02:35.198Z,99308.16
2018-09-19T23:05:09.775Z,99307.46
2018-09-19T23:07:44.621Z,99299.77
2018-09-19T23:10:19.565Z,99308.59
2018-09-19T23:12:54.111Z,99306.41
2018-09-19T23:15:28.750Z,99308.81
2018-09-19T23:18:03.513Z,99301.39
2018-09-19T23:20:38.088Z,99306.89
2018-09-19T23:23:12.709Z,99297.06
2018-09-19T23:25:47.364Z,99294.09
2018-09-19T23:28:22.036Z,99297.19
2018-09-19T23:31:04.085Z,99294.78
2018-09-19T23:36:43.281Z,99291.92
2018-09-19T23:42:18.660Z,99292.98
2018-09-19T23:44:57.400Z,99287.34
2018-09-19T23:47:52.060Z,99288.86
2018-09-19T23:50:31.162Z,99279.47
2018-09-19T23:56:04.664Z,99268.70
2018-09-19T23:58:39.325Z,99268.70
